HISTORICAL SENSOR DATA

Sensor Data Report

DB LIVE
CURRENT TIME--:--:--
DEVICE NETWORK Gateway Status
13 ESP · realtime ~1s · history 60s
Weather WS-MOD-01
ONLINE
Actuator ACT-MOD-01
OFFLINE
Mainboard L3 MB-L3-01
ONLINE
Mainboard L5 MB-L5-01
ONLINE
Remote AC AC-REMOTE-01
ONLINE
PZEM L3-01 PWR-L3-01
OFFLINE
PZEM L3-02 PWR-L3-02
OFFLINE
PZEM L3-03 PWR-L3-03
OFFLINE
PZEM L3-04 PWR-L3-04
OFFLINE
PZEM L5-01 PWR-L5-01
ONLINE
PZEM L5-02 PWR-L5-02
ONLINE
PZEM L5-03 PWR-L5-03
OFFLINE
PZEM L5-04 PWR-L5-04
OFFLINE
REPORT FILTER

Periode & Sensor

DATABASE HISTORY
RESET
QUICK RANGE Hari ini 7 hari 30 hari
PERIODE31 Aug 2026sampai 06 Sep 2026
TOTAL DATA67,817sensor readings
MINIMUM-0.50sesuai filter
AVERAGE84.86sesuai filter
MAXIMUM32,564.20sesuai filter
REPORT RESULT

Data Sensor

31/08/2026 — 06/09/2026 EXPORT CSV
NOTANGGALWAKTUDEVICECHANNELSENSORVALUEUNIT
3701 06/09/2026 23:05:00 AC-REMOTE-01Remote AC AC-SETPOINT AC Set Temperature 23.00 °C
3702 06/09/2026 23:05:00 PWR-L5-01Power Meter L5 PZEM 01 PZEM-L5-01-POWER PZEM L5-01 Active Power 10.80 W
3703 06/09/2026 23:05:00 MB-L3-01Mainboard Lantai 3 L3-AI-01 Analog Input 1 3.12 V
3704 06/09/2026 23:05:00 MB-L5-01Mainboard Lantai 5 L5-SHT-03-RH SHT20 3 Humidity 44.90 %RH
3705 06/09/2026 23:04:00 MB-L5-01Mainboard Lantai 5 L5-HFT-01 Heat Flow Temperature 1 24.70 °C
3706 06/09/2026 23:04:00 MB-L5-01Mainboard Lantai 5 L5-LUX-04 Illuminance / LUX 4 0.10 lux
3707 06/09/2026 23:04:00 WS-MOD-01Weather Station Module WS-RH Kelembapan Udara 75.10 %RH
3708 06/09/2026 23:04:00 MB-L5-01Mainboard Lantai 5 L5-RAD-01 Radiation 1 1.00 W/m²
3709 06/09/2026 23:04:00 MB-L5-01Mainboard Lantai 5 L5-AI-01 Analog Input 1 3.05 V
3710 06/09/2026 23:04:00 MB-L5-01Mainboard Lantai 5 L5-LUX-02 Illuminance / LUX 2 0.10 lux
3711 06/09/2026 23:04:00 PWR-L5-01Power Meter L5 PZEM 01 PZEM-L5-01-FREQ PZEM L5-01 Frequency 50.00 Hz
3712 06/09/2026 23:04:00 PWR-L5-02Power Meter L5 PZEM 02 PZEM-L5-02-ENERGY PZEM L5-02 Energy 0.04 kWh
3713 06/09/2026 23:04:00 MB-L3-01Mainboard Lantai 3 L3-LUX-01 Illuminance / LUX 1 0.20 lux
3714 06/09/2026 23:04:00 MB-L5-01Mainboard Lantai 5 L5-LUX-06 Illuminance / LUX 6 0.10 lux
3715 06/09/2026 23:04:00 MB-L3-01Mainboard Lantai 3 L3-AI-02 Analog Input 2 3.12 V
3716 06/09/2026 23:04:00 MB-L5-01Mainboard Lantai 5 L5-AI-04 Analog Input 4 3.05 V
3717 06/09/2026 23:04:00 MB-L3-01Mainboard Lantai 3 L3-SHT-01-RH SHT20 1 Humidity 45.10 %RH
3718 06/09/2026 23:04:00 MB-L3-01Mainboard Lantai 3 L3-LUX-03 Illuminance / LUX 3 0.20 lux
3719 06/09/2026 23:04:00 PWR-L5-01Power Meter L5 PZEM 01 PZEM-L5-01-PF PZEM L5-01 Power Factor 0.38
3720 06/09/2026 23:04:00 WS-MOD-01Weather Station Module WS-TEMP Suhu Udara 20.30 °C
3721 06/09/2026 23:04:00 AC-REMOTE-01Remote AC AC-FAN AC Fan Speed 0.00 code
3722 06/09/2026 23:04:00 MB-L5-01Mainboard Lantai 5 L5-BGT-03 Black Globe Temperature 3 26.80 °C
3723 06/09/2026 23:04:00 MB-L3-01Mainboard Lantai 3 L3-SHT-03-T SHT20 3 Temperature 29.10 °C
3724 06/09/2026 23:04:00 MB-L5-01Mainboard Lantai 5 L5-LUX-05 Illuminance / LUX 5 0.20 lux
3725 06/09/2026 23:04:00 MB-L5-01Mainboard Lantai 5 L5-LUX-01 Illuminance / LUX 1 0.00 lux
3726 06/09/2026 23:04:00 WS-MOD-01Weather Station Module WS-DIR Arah Angin 66.00 °
3727 06/09/2026 23:04:00 MB-L3-01Mainboard Lantai 3 L3-RAD-02 Radiation 2 1.00 W/m²
3728 06/09/2026 23:04:00 MB-L5-01Mainboard Lantai 5 L5-ST-01 Surface Temperature 1 24.90 °C
3729 06/09/2026 23:04:00 MB-L3-01Mainboard Lantai 3 L3-AI-05 Analog Input 5 3.12 V
3730 06/09/2026 23:04:00 MB-L5-01Mainboard Lantai 5 L5-HFT-02 Heat Flow Temperature 2 24.00 °C
3731 06/09/2026 23:04:00 MB-L3-01Mainboard Lantai 3 L3-LUX-02 Illuminance / LUX 2 0.20 lux
3732 06/09/2026 23:04:00 PWR-L5-02Power Meter L5 PZEM 02 PZEM-L5-02-POWER PZEM L5-02 Active Power 0.00 W
3733 06/09/2026 23:04:00 MB-L5-01Mainboard Lantai 5 L5-AI-02 Analog Input 2 3.05 V
3734 06/09/2026 23:04:00 PWR-L5-01Power Meter L5 PZEM 01 PZEM-L5-01-VOLT PZEM L5-01 Voltage 227.40 V
3735 06/09/2026 23:04:00 AC-REMOTE-01Remote AC AC-MODE AC Operating Mode 1.00 code
3736 06/09/2026 23:04:00 MB-L3-01Mainboard Lantai 3 L3-SHT-01-T SHT20 1 Temperature 29.00 °C
3737 06/09/2026 23:04:00 MB-L3-01Mainboard Lantai 3 L3-SHT-02-T SHT20 2 Temperature 29.20 °C
3738 06/09/2026 23:04:00 PWR-L5-02Power Meter L5 PZEM 02 PZEM-L5-02-PF PZEM L5-02 Power Factor 0.00
3739 06/09/2026 23:04:00 MB-L5-01Mainboard Lantai 5 L5-BGT-01 Black Globe Temperature 1 27.10 °C
3740 06/09/2026 23:04:00 MB-L5-01Mainboard Lantai 5 L5-AI-05 Analog Input 5 3.05 V
3741 06/09/2026 23:04:00 MB-L3-01Mainboard Lantai 3 L3-AI-03 Analog Input 3 3.12 V
3742 06/09/2026 23:04:00 WS-MOD-01Weather Station Module WS-WIND Kecepatan Angin 6.34 m/s
3743 06/09/2026 23:04:00 PWR-L5-01Power Meter L5 PZEM 01 PZEM-L5-01-CURR PZEM L5-01 Current 0.12 A
3744 06/09/2026 23:04:00 MB-L5-01Mainboard Lantai 5 L5-ST-02 Surface Temperature 2 24.30 °C
3745 06/09/2026 23:04:00 MB-L5-01Mainboard Lantai 5 L5-SHT-01-RH SHT20 1 Humidity 45.20 %RH
3746 06/09/2026 23:04:00 PWR-L5-02Power Meter L5 PZEM 02 PZEM-L5-02-CURR PZEM L5-02 Current 0.00 A
3747 06/09/2026 23:04:00 MB-L3-01Mainboard Lantai 3 L3-LUX-06 Illuminance / LUX 6 0.30 lux
3748 06/09/2026 23:04:00 WS-MOD-01Weather Station Module WS-PRES Tekanan Udara 912.00 hPa
3749 06/09/2026 23:04:00 MB-L5-01Mainboard Lantai 5 L5-SHT-02-T SHT20 2 Temperature 29.20 °C
3750 06/09/2026 23:04:00 MB-L3-01Mainboard Lantai 3 L3-LUX-04 Illuminance / LUX 4 0.10 lux
3751 06/09/2026 23:04:00 AC-REMOTE-01Remote AC AC-SETPOINT AC Set Temperature 23.00 °C
3752 06/09/2026 23:04:00 PWR-L5-01Power Meter L5 PZEM 01 PZEM-L5-01-POWER PZEM L5-01 Active Power 10.50 W
3753 06/09/2026 23:04:00 MB-L3-01Mainboard Lantai 3 L3-AI-01 Analog Input 1 3.12 V
3754 06/09/2026 23:04:00 MB-L5-01Mainboard Lantai 5 L5-SHT-03-RH SHT20 3 Humidity 45.00 %RH
3755 06/09/2026 23:04:00 MB-L3-01Mainboard Lantai 3 L3-SHT-02-RH SHT20 2 Humidity 44.40 %RH
3756 06/09/2026 23:04:00 MB-L5-01Mainboard Lantai 5 L5-SHT-01-T SHT20 1 Temperature 29.00 °C
3757 06/09/2026 23:04:00 MB-L3-01Mainboard Lantai 3 L3-SHT-03-RH SHT20 3 Humidity 44.80 %RH
3758 06/09/2026 23:04:00 MB-L5-01Mainboard Lantai 5 L5-LUX-03 Illuminance / LUX 3 0.20 lux
3759 06/09/2026 23:04:00 MB-L5-01Mainboard Lantai 5 L5-SHT-03-T SHT20 3 Temperature 29.20 °C
3760 06/09/2026 23:04:00 MB-L3-01Mainboard Lantai 3 L3-AI-06 Analog Input 6 3.12 V
3761 06/09/2026 23:04:00 MB-L5-01Mainboard Lantai 5 L5-AI-03 Analog Input 3 3.05 V
3762 06/09/2026 23:04:00 MB-L5-01Mainboard Lantai 5 L5-SHT-02-RH SHT20 2 Humidity 44.70 %RH
3763 06/09/2026 23:04:00 PWR-L5-02Power Meter L5 PZEM 02 PZEM-L5-02-FREQ PZEM L5-02 Frequency 50.00 Hz
3764 06/09/2026 23:04:00 MB-L3-01Mainboard Lantai 3 L3-RAD-01 Radiation 1 1.00 W/m²
3765 06/09/2026 23:04:00 PWR-L5-01Power Meter L5 PZEM 01 PZEM-L5-01-ENERGY PZEM L5-01 Energy 0.05 kWh
3766 06/09/2026 23:04:00 MB-L5-01Mainboard Lantai 5 L5-BGT-02 Black Globe Temperature 2 26.90 °C
3767 06/09/2026 23:04:00 PWR-L5-02Power Meter L5 PZEM 02 PZEM-L5-02-VOLT PZEM L5-02 Voltage 227.30 V
3768 06/09/2026 23:04:00 MB-L5-01Mainboard Lantai 5 L5-AI-06 Analog Input 6 3.05 V
3769 06/09/2026 23:04:00 AC-REMOTE-01Remote AC AC-POWER AC Power State 1.00 state
3770 06/09/2026 23:04:00 MB-L3-01Mainboard Lantai 3 L3-AI-04 Analog Input 4 3.12 V
3771 06/09/2026 23:04:00 MB-L3-01Mainboard Lantai 3 L3-LUX-05 Illuminance / LUX 5 0.30 lux
3772 06/09/2026 23:04:00 MB-L5-01Mainboard Lantai 5 L5-RAD-02 Radiation 2 1.00 W/m²
3773 06/09/2026 23:03:00 MB-L3-01Mainboard Lantai 3 L3-SHT-01-RH SHT20 1 Humidity 45.00 %RH
3774 06/09/2026 23:03:00 MB-L3-01Mainboard Lantai 3 L3-LUX-03 Illuminance / LUX 3 0.20 lux
3775 06/09/2026 23:03:00 PWR-L5-01Power Meter L5 PZEM 01 PZEM-L5-01-PF PZEM L5-01 Power Factor 0.38
3776 06/09/2026 23:03:00 WS-MOD-01Weather Station Module WS-TEMP Suhu Udara 20.40 °C
3777 06/09/2026 23:03:00 AC-REMOTE-01Remote AC AC-FAN AC Fan Speed 0.00 code
3778 06/09/2026 23:03:00 MB-L5-01Mainboard Lantai 5 L5-BGT-03 Black Globe Temperature 3 26.80 °C
3779 06/09/2026 23:03:00 MB-L3-01Mainboard Lantai 3 L3-SHT-03-T SHT20 3 Temperature 29.20 °C
3780 06/09/2026 23:03:00 MB-L5-01Mainboard Lantai 5 L5-LUX-01 Illuminance / LUX 1 0.00 lux
3781 06/09/2026 23:03:00 WS-MOD-01Weather Station Module WS-DIR Arah Angin 64.70 °
3782 06/09/2026 23:03:00 MB-L3-01Mainboard Lantai 3 L3-RAD-02 Radiation 2 1.00 W/m²
3783 06/09/2026 23:03:00 MB-L5-01Mainboard Lantai 5 L5-ST-01 Surface Temperature 1 24.70 °C
3784 06/09/2026 23:03:00 MB-L3-01Mainboard Lantai 3 L3-AI-05 Analog Input 5 3.12 V
3785 06/09/2026 23:03:00 MB-L5-01Mainboard Lantai 5 L5-HFT-02 Heat Flow Temperature 2 24.10 °C
3786 06/09/2026 23:03:00 MB-L3-01Mainboard Lantai 3 L3-LUX-02 Illuminance / LUX 2 0.20 lux
3787 06/09/2026 23:03:00 PWR-L5-02Power Meter L5 PZEM 02 PZEM-L5-02-POWER PZEM L5-02 Active Power 0.00 W
3788 06/09/2026 23:03:00 MB-L5-01Mainboard Lantai 5 L5-AI-02 Analog Input 2 3.05 V
3789 06/09/2026 23:03:00 PWR-L5-01Power Meter L5 PZEM 01 PZEM-L5-01-VOLT PZEM L5-01 Voltage 227.30 V
3790 06/09/2026 23:03:00 AC-REMOTE-01Remote AC AC-MODE AC Operating Mode 1.00 code
3791 06/09/2026 23:03:00 MB-L3-01Mainboard Lantai 3 L3-SHT-01-T SHT20 1 Temperature 28.90 °C
3792 06/09/2026 23:03:00 MB-L3-01Mainboard Lantai 3 L3-SHT-02-T SHT20 2 Temperature 29.20 °C
3793 06/09/2026 23:03:00 PWR-L5-02Power Meter L5 PZEM 02 PZEM-L5-02-PF PZEM L5-02 Power Factor 0.00
3794 06/09/2026 23:03:00 MB-L5-01Mainboard Lantai 5 L5-BGT-01 Black Globe Temperature 1 27.10 °C
3795 06/09/2026 23:03:00 MB-L5-01Mainboard Lantai 5 L5-AI-05 Analog Input 5 3.05 V
3796 06/09/2026 23:03:00 MB-L3-01Mainboard Lantai 3 L3-AI-03 Analog Input 3 3.12 V
3797 06/09/2026 23:03:00 WS-MOD-01Weather Station Module WS-WIND Kecepatan Angin 4.34 m/s
3798 06/09/2026 23:03:00 PWR-L5-01Power Meter L5 PZEM 01 PZEM-L5-01-CURR PZEM L5-01 Current 0.12 A
3799 06/09/2026 23:03:00 MB-L5-01Mainboard Lantai 5 L5-ST-02 Surface Temperature 2 24.30 °C
3800 06/09/2026 23:03:00 MB-L5-01Mainboard Lantai 5 L5-SHT-01-RH SHT20 1 Humidity 45.00 %RH
Menampilkan maksimal 100 data per halaman